Terminal Aerodrome Forecast
Issued by NWS

Home | Current Version | Previous Version | Text Only | Print | Product List | Glossary On
Versions: 1 2 3 4 5 6 7 8 9 10 11 12 13 14 15 16 17 18 19 20
000
FTUS46 KMTR 311728
TAFSNS
TAF
KSNS 311728Z 3118/0118 VRB03KT P6SM FEW005
     FM311900 29012KT P6SM SKC
     FM010300 29008KT 6SM BR BKN007
     FM010700 30003KT 3SM BR OVC005
     FM011400 VRB04KT P6SM SCT005=

USA.gov is the U.S. government's official web portal to all federal, state and local government web resources and services.